Time;durP1;ratioP1;P1;durP2;ratioP2;P2;SDS_P1;SDS_P2;PMS_P1;PMS_P2;Temp;Humidity;BMP_temperature;BMP_pressure;BME280_temperature;BME280_humidity;BME280_pressure;Samples;Min_cycle;Max_cycle;Signal;HPM_P1;HPM_P2
2022/05/29 00:01:37;;;;;;;5.53;2.53;;;9.80;99.90;;;;;;5035458;28;20207;-89
2022/05/29 00:04:04;;;;;;;6.80;2.57;;;9.70;99.90;;;;;;5035018;28;20201;-88
2022/05/29 00:06:34;;;;;;;5.13;2.30;;;9.70;1.00;;;;;;5035039;28;20203;-88
2022/05/29 00:09:01;;;;;;;5.73;2.60;;;9.70;1.00;;;;;;5035172;28;20203;-90
2022/05/29 00:11:28;;;;;;;7.00;3.07;;;9.60;1.00;;;;;;5035453;28;20686;-93
2022/05/29 00:14:00;;;;;;;10.57;2.93;;;9.60;1.00;;;;;;5035654;28;20208;-89
2022/05/29 00:16:27;;;;;;;7.17;2.50;;;9.50;1.00;;;;;;5035331;28;20537;-89
2022/05/29 00:18:56;;;;;;;6.70;2.37;;;9.60;1.00;;;;;;5035360;28;20331;-89
2022/05/29 00:21:23;;;;;;;7.27;2.60;;;9.50;1.00;;;;;;5035139;28;20206;-90
2022/05/29 00:23:51;;;;;;;11.60;2.70;;;9.50;1.00;;;;;;5035150;28;20199;-88
2022/05/29 00:26:18;;;;;;;6.37;2.83;;;9.50;1.00;;;;;;5035376;28;20234;-94
2022/05/29 00:28:46;;;;;;;7.33;2.70;;;9.40;1.00;;;;;;5035174;28;20610;-90
2022/05/29 00:31:14;;;;;;;12.70;2.70;;;9.40;1.00;;;;;;5035377;28;20231;-88
2022/05/29 00:33:41;;;;;;;5.80;2.60;;;9.30;1.00;;;;;;5035106;28;20247;-89
2022/05/29 00:36:12;;;;;;;6.10;2.90;;;9.30;1.00;;;;;;5034854;28;20240;-90
2022/05/29 00:38:40;;;;;;;7.47;2.53;;;9.20;1.00;;;;;;5034862;28;20299;-92
2022/05/29 00:41:17;;;;;;;3.60;2.57;;;9.20;1.00;;;;;;5035091;28;20198;-92
2022/05/29 00:43:44;;;;;;;7.63;2.70;;;9.20;1.00;;;;;;5035343;28;20275;-91
2022/05/29 00:46:12;;;;;;;6.47;2.67;;;9.10;1.00;;;;;;5034810;28;20203;-90
2022/05/29 00:48:39;;;;;;;4.63;2.40;;;9.10;1.00;;;;;;5034543;28;20698;-92
2022/05/29 00:51:11;;;;;;;8.90;2.70;;;9.10;1.00;;;;;;5034557;28;20199;-92
2022/05/29 00:53:40;;;;;;;4.87;2.80;;;9.10;1.00;;;;;;5034648;28;20636;-88
2022/05/29 00:56:11;;;;;;;6.03;2.53;;;9.10;1.00;;;;;;5034501;28;20679;-89
2022/05/29 00:58:38;;;;;;;6.17;2.70;;;9.10;1.00;;;;;;5034382;28;20253;-89
2022/05/29 01:01:05;;;;;;;8.17;2.70;;;9.10;1.00;;;;;;5034948;28;20272;-91
2022/05/29 01:03:32;;;;;;;7.73;2.83;;;9.00;1.00;;;;;;5034632;28;20275;-92
2022/05/29 01:05:59;;;;;;;6.40;2.70;;;9.00;1.00;;;;;;5034236;28;20264;-89
2022/05/29 01:08:31;;;;;;;8.50;3.20;;;9.00;1.00;;;;;;5034703;28;20202;-92
2022/05/29 01:11:19;;;;;;;8.93;2.57;;;9.00;1.00;;;;;;5034370;28;20271;-91
2022/05/29 01:13:59;;;;;;;5.73;2.80;;;9.00;1.00;;;;;;5034964;28;20213;-92
2022/05/29 01:16:36;;;;;;;7.40;2.63;;;8.90;1.00;;;;;;5033966;28;20250;-90
2022/05/29 01:19:22;;;;;;;9.53;2.90;;;8.80;1.00;;;;;;5034145;28;20254;-89
2022/05/29 01:22:04;;;;;;;5.50;2.57;;;8.80;1.00;;;;;;5034582;28;20211;-91
2022/05/29 01:25:01;;;;;;;6.20;2.50;;;8.70;1.00;;;;;;5033939;28;20238;-90
2022/05/29 01:27:45;;;;;;;9.10;2.53;;;8.70;1.00;;;;;;5032810;28;20201;-89
2022/05/29 01:30:17;;;;;;;12.40;2.80;;;8.60;1.00;;;;;;5033571;28;20703;-90
2022/05/29 01:32:58;;;;;;;8.27;2.60;;;8.60;1.00;;;;;;5033917;28;20179;-89
2022/05/29 01:35:31;;;;;;;8.00;2.70;;;8.60;1.00;;;;;;5033903;28;20204;-89
2022/05/29 01:38:01;;;;;;;8.03;3.10;;;;;;;;;;5033862;28;20215;-89
2022/05/29 01:40:37;;;;;;;6.03;2.60;;;8.40;1.00;;;;;;5034064;28;20257;-89
2022/05/29 01:43:15;;;;;;;6.13;2.50;;;8.30;1.00;;;;;;5033809;28;20548;-89
2022/05/29 01:45:57;;;;;;;8.27;2.93;;;8.30;1.00;;;;;;5033124;28;20180;-93
2022/05/29 01:48:37;;;;;;;6.40;3.30;;;8.20;1.00;;;;;;5033613;28;20247;-89
2022/05/29 01:51:08;;;;;;;7.63;3.10;;;8.30;1.00;;;;;;5033636;28;20180;-91
2022/05/29 01:53:40;;;;;;;6.43;2.90;;;8.10;1.00;;;;;;5033671;28;20200;-89
2022/05/29 01:56:14;;;;;;;5.33;2.87;;;8.10;1.00;;;;;;5033653;28;20192;-89
2022/05/29 01:58:46;;;;;;;6.33;2.67;;;8.10;1.00;;;;;;5033383;28;20630;-91
2022/05/29 02:01:16;;;;;;;10.13;2.90;;;8.10;1.00;;;;;;5033665;28;20181;-91
2022/05/29 02:03:47;;;;;;;8.37;2.77;;;8.00;1.00;;;;;;5033156;28;20686;-90
2022/05/29 02:06:17;;;;;;;6.90;2.60;;;8.00;1.00;;;;;;5033684;28;20587;-92
2022/05/29 02:08:48;;;;;;;5.23;3.03;;;8.10;1.00;;;;;;5033477;28;20184;-89
2022/05/29 02:11:21;;;;;;;7.43;3.30;;;8.00;1.00;;;;;;5034181;28;20196;-89
2022/05/29 02:13:53;;;;;;;7.53;2.83;;;8.10;1.00;;;;;;5033311;28;20176;-89
2022/05/29 02:16:28;;;;;;;7.80;2.80;;;8.10;1.00;;;;;;5033328;28;20210;-90
2022/05/29 02:18:59;;;;;;;8.50;3.73;;;8.10;1.00;;;;;;5032548;28;20207;-89
2022/05/29 02:21:30;;;;;;;6.80;3.27;;;8.00;1.00;;;;;;5033344;28;20204;-90
2022/05/29 02:24:01;;;;;;;8.00;2.73;;;8.00;1.00;;;;;;5032974;28;20179;-89
2022/05/29 02:26:34;;;;;;;8.90;3.27;;;8.00;1.00;;;;;;5032993;28;20628;-93
2022/05/29 02:29:06;;;;;;;8.67;3.20;;;8.00;1.00;;;;;;5032726;28;20647;-90
2022/05/29 02:31:42;;;;;;;8.03;2.80;;;8.00;1.00;;;;;;5033076;28;20194;-89
2022/05/29 02:34:18;;;;;;;7.40;3.13;;;7.90;1.00;;;;;;5032831;28;20178;-89
2022/05/29 02:36:51;;;;;;;5.83;2.70;;;7.90;1.00;;;;;;5033003;28;20184;-89
2022/05/29 02:39:38;;;;;;;7.93;2.67;;;7.90;1.70;;;;;;5032969;28;20299;-91
2022/05/29 02:42:22;;;;;;;12.30;3.13;;;8.00;5.30;;;;;;5032694;28;20187;-93
2022/05/29 02:45:00;;;;;;;9.40;2.80;;;7.90;51.10;;;;;;5033420;28;20175;-88
2022/05/29 02:47:38;;;;;;;5.93;2.80;;;7.90;28.10;;;;;;5032656;28;20227;-89
2022/05/29 02:50:44;;;;;;;6.93;2.93;;;7.90;8.70;;;;;;5043340;28;20162;-91
2022/05/29 02:53:13;;;;;;;5.07;2.57;;;7.90;99.90;;;;;;5049889;28;20194;-89
2022/05/29 02:55:43;;;;;;;6.87;3.00;;;7.90;76.20;;;;;;5041185;28;20205;-91
2022/05/29 02:58:20;;;;;;;8.13;3.10;;;7.90;78.70;;;;;;5043474;28;20648;-92
2022/05/29 03:01:19;;;;;;;5.80;3.70;;;7.90;99.90;;;;;;5043811;28;20180;-89
2022/05/29 03:04:01;;;;;;;8.43;3.10;;;7.90;99.90;;;;;;5049262;28;20181;-90
2022/05/29 03:06:43;;;;;;;7.03;3.10;;;7.90;99.90;;;;;;5044424;28;20266;-91
2022/05/29 03:09:27;;;;;;;6.73;3.10;;;8.00;99.90;;;;;;5040301;28;20210;-90
2022/05/29 03:12:06;;;;;;;8.43;2.80;;;8.00;99.90;;;;;;5047363;28;20176;-93
2022/05/29 03:14:44;;;;;;;8.87;3.30;;;8.00;99.90;;;;;;5046986;28;20178;-92
2022/05/29 03:17:21;;;;;;;6.70;3.20;;;8.10;99.90;;;;;;5049154;28;20199;-92
2022/05/29 03:20:02;;;;;;;5.87;2.90;;;8.10;99.90;;;;;;5044499;28;20218;-93
2022/05/29 03:22:47;;;;;;;7.70;3.30;;;8.10;99.90;;;;;;5041500;28;20186;-90
2022/05/29 03:25:22;;;;;;;7.10;3.00;;;8.20;99.90;;;;;;5045924;28;20208;-88
2022/05/29 03:28:07;;;;;;;7.93;3.20;;;8.20;99.90;;;;;;5042479;28;20459;-94
2022/05/29 03:30:48;;;;;;;9.20;3.27;;;8.30;1.00;;;;;;5043679;28;20569;-95
2022/05/29 03:33:19;;;;;;;9.07;3.30;;;8.40;1.00;;;;;;5043646;28;20221;-92
2022/05/29 03:36:07;;;;;;;6.67;3.07;;;8.50;1.00;;;;;;5045691;28;20207;-91
2022/05/29 03:38:39;;;;;;;5.67;3.10;;;8.60;1.00;;;;;;5044661;28;20259;-88
2022/05/29 03:41:12;;;;;;;6.37;3.20;;;8.70;1.00;;;;;;5039027;28;20280;-92
2022/05/29 03:43:42;;;;;;;11.70;4.53;;;8.80;1.00;;;;;;5042753;28;20206;-93
2022/05/29 03:46:17;;;;;;;12.10;5.90;;;9.00;99.90;;;;;;5045061;28;20194;-89
2022/05/29 03:48:55;;;;;;;9.97;5.87;;;9.60;1.00;;;;;;5041662;28;20208;-94
2022/05/29 03:51:41;;;;;;;11.50;4.83;;;10.50;1.00;;;;;;5040624;28;20256;-91
2022/05/29 03:54:12;;;;;;;6.43;4.07;;;11.60;1.00;;;;;;5044136;28;20285;-90
2022/05/29 03:56:40;;;;;;;6.23;3.40;;;12.60;99.90;;;;;;5044932;28;20187;-90
2022/05/29 03:59:07;;;;;;;9.13;3.10;;;13.60;1.00;;;;;;5041098;28;20267;-90
2022/05/29 04:01:38;;;;;;;8.67;3.07;;;14.60;1.00;;;;;;5042373;28;20638;-91
2022/05/29 04:04:06;;;;;;;6.85;3.17;;;15.50;1.00;;;;;;5046952;28;20192;-90
2022/05/29 04:06:34;;;;;;;6.00;2.33;;;16.30;99.90;;;;;;5044481;28;20728;-93
2022/05/29 04:12:07;;;;;;;6.72;1.80;;;16.60;99.90;;;;;;5043962;28;20595;-90
2022/05/29 04:14:37;;;;;;;4.07;1.87;;;16.90;1.00;;;;;;5036024;28;20219;-90
2022/05/29 04:17:05;;;;;;;5.80;1.98;;;17.10;1.00;;;;;;5040169;28;20181;-93
2022/05/29 04:19:37;;;;;;;4.50;1.80;;;17.90;1.00;;;;;;5046898;28;20667;-93
2022/05/29 04:22:17;;;;;;;6.32;1.70;;;18.60;1.00;;;;;;5047793;28;20706;-93
2022/05/29 04:24:56;;;;;;;4.93;1.48;;;18.40;1.00;;;;;;5044498;28;20208;-91
2022/05/29 04:27:36;;;;;;;3.08;1.40;;;17.90;99.90;;;;;;5048798;28;20244;-91
2022/05/29 04:30:05;;;;;;;4.32;1.60;;;17.50;99.90;;;;;;5026259;28;20221;-90
2022/05/29 04:35:23;;;;;;;4.65;1.50;;;18.40;1.00;;;;;;5007172;28;20201;-93
2022/05/29 04:37:51;;;;;;;;;;;19.50;1.00;;;;;;5004639;28;20046;-92
2022/05/29 04:40:19;;;;;;;;;;;20.60;99.90;;;;;;5006835;28;19937;-91
2022/05/29 04:42:48;;;;;;;;;;;21.40;99.90;;;;;;5012766;28;20452;-90
2022/05/29 04:45:15;;;;;;;;;;;22.10;99.90;;;;;;5025941;28;19929;-89
2022/05/29 04:47:54;;;;;;;4.85;1.52;;;22.60;62.20;;;;;;5024782;28;19936;-92
2022/05/29 04:50:22;;;;;;;12.10;7.40;;;23.30;1.00;;;;;;5026583;28;20575;-89
2022/05/29 04:52:57;;;;;;;4.53;1.88;;;23.90;1.00;;;;;;5019210;28;20645;-92
2022/05/29 04:55:35;;;;;;;;;;;24.30;1.00;;;;;;5002453;28;20480;-92
2022/05/29 04:58:14;;;;;;;7.57;3.20;;;24.70;1.00;;;;;;5004467;28;20412;-91
2022/05/29 05:00:48;;;;;;;6.57;2.75;;;25.30;1.00;;;;;;5003377;28;20218;-91
2022/05/29 05:03:19;;;;;;;6.90;2.20;;;25.60;1.00;;;;;;5006223;28;20191;-91
2022/05/29 05:05:49;;;;;;;6.50;3.15;;;25.90;1.00;;;;;;5004682;28;20285;-90
2022/05/29 05:08:16;;;;;;;5.88;2.17;;;26.00;1.00;;;;;;5004707;28;20665;-91
2022/05/29 05:10:51;;;;;;;6.20;2.72;;;26.50;1.00;;;;;;5008847;28;20198;-90
2022/05/29 05:13:32;;;;;;;7.25;4.85;;;27.00;1.00;;;;;;5026766;28;20230;-89
2022/05/29 05:16:16;;;;;;;3.08;1.60;;;27.40;1.00;;;;;;5023598;28;20186;-88
2022/05/29 05:18:44;;;;;;;9.85;6.50;;;27.70;1.00;;;;;;5027202;28;20183;-89
2022/05/29 05:21:15;;;;;;;5.80;3.70;;;27.90;1.00;;;;;;5024206;28;20652;-90
2022/05/29 05:23:52;;;;;;;3.30;1.60;;;28.00;1.00;;;;;;5023681;28;20270;-89
2022/05/29 05:26:21;;;;;;;4.97;2.25;;;28.10;1.00;;;;;;5020826;28;20081;-87
2022/05/29 05:28:50;;;;;;;3.25;1.70;;;28.30;1.00;;;;;;5024598;28;20191;-87
2022/05/29 05:31:18;;;;;;;8.25;5.40;;;28.50;1.00;;;;;;5004657;28;20277;-92
2022/05/29 05:33:45;;;;;;;4.78;1.70;;;28.60;1.00;;;;;;5004019;28;20182;-88
2022/05/29 05:36:14;;;;;;;7.82;4.78;;;28.70;1.00;;;;;;5003528;28;20199;-89
2022/05/29 05:38:41;;;;;;;6.20;4.53;;;28.80;1.00;;;;;;5007356;28;20183;-88
2022/05/29 05:41:10;;;;;;;4.43;2.28;;;29.00;1.00;;;;;;5004786;28;20195;-87
2022/05/29 05:43:39;;;;;;;2.65;1.92;;;29.20;1.00;;;;;;5002142;28;20245;-91
2022/05/29 05:46:20;;;;;;;4.28;2.40;;;29.30;1.00;;;;;;5005212;28;20203;-91
2022/05/29 05:48:53;;;;;;;4.28;2.28;;;29.40;1.00;;;;;;5003364;28;20234;-89
2022/05/29 05:51:23;;;;;;;4.68;2.28;;;29.30;1.00;;;;;;5022025;28;20202;-88
2022/05/29 05:53:56;;;;;;;3.47;1.90;;;29.60;1.00;;;;;;5022031;28;20194;-88
2022/05/29 05:56:30;;;;;;;6.25;2.80;;;29.70;1.00;;;;;;5023979;28;20206;-89
2022/05/29 05:59:12;;;;;;;6.20;1.58;;;29.40;1.00;;;;;;5021908;28;20243;-90
2022/05/29 06:01:40;;;;;;;3.95;1.45;;;29.20;1.00;;;;;;5003747;28;20194;-90
2022/05/29 06:04:07;;;;;;;5.55;1.90;;;28.90;1.00;;;;;;5002790;28;20230;-88
2022/05/29 06:06:38;;;;;;;3.78;1.40;;;28.80;1.00;;;;;;5004909;28;20174;-87
2022/05/29 06:09:16;;;;;;;4.82;1.80;;;29.10;1.00;;;;;;5023300;28;20273;-90
2022/05/29 06:11:58;;;;;;;6.38;3.38;;;29.40;1.00;;;;;;5007809;28;20226;-91
2022/05/29 06:14:30;;;;;;;33.33;20.05;;;29.50;1.00;;;;;;5001471;28;20203;-91
2022/05/29 06:17:12;;;;;;;21.58;12.63;;;30.00;1.00;;;;;;5002714;28;20518;-91
2022/05/29 06:19:40;;;;;;;23.10;14.48;;;30.50;1.00;;;;;;5003327;28;20206;-89
2022/05/29 06:22:10;;;;;;;18.45;11.05;;;30.80;1.00;;;;;;5003329;28;20195;-91
2022/05/29 06:24:48;;;;;;;26.95;16.33;;;30.80;1.00;;;;;;5003078;28;20195;-92
2022/05/29 06:27:30;;;;;;;5.65;3.25;;;30.90;1.00;;;;;;5004865;28;20206;-92
2022/05/29 06:30:17;;;;;;;25.17;15.43;;;31.30;1.00;;;;;;5002568;28;20200;-91
2022/05/29 06:32:47;;;;;;;17.15;10.20;;;31.70;1.00;;;;;;5003621;28;20214;-90
2022/05/29 06:35:26;;;;;;;4.45;2.03;;;30.70;1.00;;;;;;5001127;28;20190;-91
2022/05/29 06:38:01;;;;;;;3.28;1.40;;;30.30;1.00;;;;;;5002837;28;20187;-93
2022/05/29 06:40:31;;;;;;;13.48;8.25;;;30.30;1.00;;;;;;5016186;28;20742;-90
2022/05/29 06:43:20;;;;;;;11.90;7.88;;;30.80;1.00;;;;;;5023657;28;20202;-91
2022/05/29 06:45:50;;;;;;;9.77;6.25;;;30.70;1.00;;;;;;5021712;28;20557;-91
2022/05/29 06:48:19;;;;;;;13.18;10.20;;;30.80;1.00;;;;;;5026053;28;20714;-92
2022/05/29 06:50:47;;;;;;;12.05;9.07;;;31.40;1.00;;;;;;5006364;28;20183;-90
2022/05/29 06:53:22;;;;;;;84.00;77.78;;;30.90;1.00;;;;;;5004041;28;20257;-89
2022/05/29 06:55:57;;;;;;;442.25;407.50;;;29.70;1.00;;;;;;5000963;28;20293;-89
2022/05/29 06:58:28;;;;;;;802.60;742.42;;;28.90;1.00;;;;;;5003173;28;20209;-88
2022/05/29 07:09:27;;;;;;;39.03;36.33;;;32.70;1.00;;;;;;5024095;28;20192;-94
2022/05/29 07:12:00;;;;;;;2.70;1.67;;;32.00;1.00;;;;;;5018022;28;20199;-93
2022/05/29 07:14:27;;;;;;;5.15;1.92;;;30.50;1.00;;;;;;5024098;28;20174;-89
2022/05/29 07:16:55;;;;;;;2.60;2.20;;;29.10;1.00;;;;;;5022963;28;20611;-92
2022/05/29 07:19:28;;;;;;;2.95;2.10;;;27.90;1.00;;;;;;5016551;28;20234;-93
2022/05/29 07:22:09;;;;;;;3.13;1.50;;;26.90;1.00;;;;;;5017404;28;20167;-90
2022/05/29 07:24:36;;;;;;;;;;;25.90;1.00;;;;;;5012121;28;20046;-90
2022/05/29 07:27:13;;;;;;;9.27;2.95;;;25.00;1.00;;;;;;5026286;28;20172;-95
2022/05/29 07:29:55;;;;;;;143.55;133.68;;;24.80;1.00;;;;;;5018623;28;20183;-93
2022/05/29 07:32:27;;;;;;;42.85;40.10;;;25.80;1.00;;;;;;5016318;28;20170;-92
2022/05/29 07:34:55;;;;;;;184.82;172.50;;;27.10;1.00;;;;;;5022418;28;20135;-92
2022/05/29 07:37:39;;;;;;;358.05;332.35;;;28.00;1.00;;;;;;5022484;28;20210;-93
2022/05/29 07:40:07;;;;;;;172.65;161.27;;;28.20;1.00;;;;;;5023178;28;20237;-89
2022/05/29 07:45:19;;;;;;;607.30;560.92;;;26.40;1.00;;;;;;5022516;28;20193;-90
2022/05/29 07:47:57;;;;;;;608.63;561.55;;;25.90;1.00;;;;;;5025136;28;20254;-92
2022/05/29 07:50:25;;;;;;;357.35;331.55;;;25.70;1.00;;;;;;5022921;28;20170;-92
2022/05/29 07:52:59;;;;;;;204.20;188.93;;;26.30;1.00;;;;;;5023614;28;20253;-88
2022/05/29 07:55:26;;;;;;;343.73;319.58;;;27.20;1.00;;;;;;5014934;28;20174;-91
2022/05/29 07:57:53;;;;;;;702.17;646.22;;;27.90;1.00;;;;;;5022028;28;20202;-89
2022/05/29 08:00:22;;;;;;;555.92;512.47;;;28.50;1.00;;;;;;5023059;28;20272;-91
2022/05/29 08:02:56;;;;;;;196.85;183.27;;;29.30;1.00;;;;;;5008244;28;20183;-88
2022/05/29 08:05:31;;;;;;;192.02;178.50;;;29.80;1.00;;;;;;5017755;28;20217;-91
2022/05/29 08:07:59;;;;;;;289.77;267.45;;;29.70;1.00;;;;;;5020953;28;20202;-91
2022/05/29 08:10:45;;;;;;;12.77;11.95;;;29.90;1.00;;;;;;5023011;28;20209;-89
2022/05/29 08:13:14;;;;;;;138.45;129.20;;;29.50;1.00;;;;;;5013625;28;20194;-92
2022/05/29 08:15:41;;;;;;;394.33;364.55;;;28.90;1.00;;;;;;5017517;28;20214;-93
2022/05/29 08:18:21;;;;;;;264.55;246.43;;;28.30;1.00;;;;;;5023309;28;20230;-88
2022/05/29 08:20:48;;;;;;;267.05;248.02;;;28.30;1.00;;;;;;5006604;28;20210;-89
2022/05/29 08:23:15;;;;;;;331.35;307.40;;;28.00;1.00;;;;;;5007551;28;20645;-87
2022/05/29 08:31:20;;;;;;;;;;;25.40;1.00;;;;;;5017395;28;20110;-89
2022/05/29 08:33:55;;;;;;;;;;;24.30;1.00;;;;;;5008646;28;19925;-89
2022/05/29 08:36:39;;;;;;;;;;;;;;;;;;;;;
2022/05/29 08:42:17;;;;;;;3.28;1.70;;;21.40;1.00;;;;;;5066674;23;20383;-94
2022/05/29 08:44:54;;;;;;;4.20;1.73;;;20.60;1.00;;;;;;5046752;28;20244;-93
2022/05/29 08:47:36;;;;;;;;;;;;;;;;;;;;;
2022/05/29 08:53:17;;;;;;;;;;;18.90;1.00;;;;;;5911362;22;20131;-93
2022/05/29 08:55:57;;;;;;;;;;;18.50;1.00;;;;;;5025285;28;20012;-88
2022/05/29 08:58:31;;;;;;;3.90;1.70;;;18.20;1.00;;;;;;5016648;28;20203;-87
2022/05/29 09:01:26;;;;;;;3.70;1.50;;;17.90;1.00;;;;;;5019128;28;20251;-92
2022/05/29 09:03:56;;;;;;;1.77;1.58;;;17.70;1.00;;;;;;5021881;28;20202;-88
2022/05/29 09:06:30;;;;;;;8.10;3.83;;;17.50;1.00;;;;;;5004520;28;20252;-88
2022/05/29 09:09:05;;;;;;;3.28;1.65;;;17.40;1.00;;;;;;5015153;28;20205;-90
2022/05/29 09:11:42;;;;;;;6.57;3.28;;;17.20;1.00;;;;;;5014248;28;20708;-93
2022/05/29 09:14:23;;;;;;;5.97;2.70;;;17.20;1.00;;;;;;5012342;28;20722;-88
2022/05/29 09:17:08;;;;;;;8.00;4.43;;;17.10;1.00;;;;;;5001182;28;20593;-89
2022/05/29 09:19:44;;;;;;;3.65;1.90;;;17.00;1.00;;;;;;5011358;28;20194;-93
2022/05/29 09:22:18;;;;;;;4.72;2.70;;;17.00;1.00;;;;;;5019227;28;20711;-90
2022/05/29 09:24:55;;;;;;;5.50;2.35;;;16.90;1.00;;;;;;5010808;28;20187;-91
2022/05/29 09:27:27;;;;;;;5.68;2.00;;;16.80;1.00;;;;;;5007030;28;20176;-90
2022/05/29 09:29:55;;;;;;;3.30;1.92;;;16.70;1.00;;;;;;4997190;28;20193;-85
2022/05/29 09:32:28;;;;;;;2.65;2.00;;;16.70;1.00;;;;;;5020295;28;20197;-94
2022/05/29 09:35:20;;;;;;;3.30;1.83;;;16.60;1.00;;;;;;5013627;28;20195;-91
2022/05/29 09:37:57;;;;;;;3.78;2.00;;;16.50;1.00;;;;;;5004265;28;20202;-89
2022/05/29 09:40:30;;;;;;;4.13;2.08;;;16.50;1.00;;;;;;5008217;28;20214;-88
2022/05/29 09:43:03;;;;;;;3.90;2.20;;;16.40;1.00;;;;;;5019842;28;20579;-91
2022/05/29 09:45:32;;;;;;;2.80;1.80;;;16.30;1.00;;;;;;5008280;28;20280;-87
2022/05/29 09:50:49;;;;;;;5.40;2.90;;;16.10;1.00;;;;;;5009624;28;20181;-90
2022/05/29 09:53:35;;;;;;;4.78;1.80;;;16.00;1.00;;;;;;5016593;28;20273;-87
2022/05/29 09:56:34;;;;;;;4.30;1.73;;;15.80;1.00;;;;;;5013619;28;20255;-89
2022/05/29 09:59:06;;;;;;;6.47;2.40;;;15.70;1.00;;;;;;5017653;28;20228;-90
2022/05/29 10:01:40;;;;;;;4.43;2.63;;;15.70;1.00;;;;;;5023488;28;20249;-92
2022/05/29 10:04:16;;;;;;;11.90;3.23;;;15.50;1.00;;;;;;5016978;28;20193;-88
2022/05/29 10:06:46;;;;;;;8.27;4.70;;;15.50;1.00;;;;;;5011197;28;20246;-89
2022/05/29 10:09:22;;;;;;;10.03;5.00;;;15.40;1.00;;;;;;5019755;28;20260;-92
2022/05/29 10:11:52;;;;;;;8.73;3.90;;;15.40;1.00;;;;;;5015642;28;20202;-91
2022/05/29 10:14:40;;;;;;;6.20;3.30;;;15.40;1.00;;;;;;5015376;28;20220;-89
2022/05/29 10:17:40;;;;;;;4.40;2.13;;;15.30;1.00;;;;;;5013407;28;20193;-90
2022/05/29 10:22:45;;;;;;;3.20;1.83;;;15.20;1.00;;;;;;5007100;26;20576;-94
2022/05/29 10:25:23;;;;;;;2.43;1.80;;;15.20;1.00;;;;;;5026947;28;20185;-96
2022/05/29 10:28:02;;;;;;;3.33;1.57;;;15.20;1.00;;;;;;5025149;28;20590;-95
2022/05/29 10:30:37;;;;;;;2.97;1.57;;;15.20;1.00;;;;;;5024637;28;20219;-91
2022/05/29 10:33:10;;;;;;;2.90;1.40;;;15.20;1.00;;;;;;5023359;28;20193;-93
2022/05/29 10:35:46;;;;;;;3.13;1.73;;;15.30;1.00;;;;;;5035084;28;20208;-95
2022/05/29 10:38:31;;;;;;;5.13;1.67;;;15.30;1.00;;;;;;5022196;28;20201;-90
2022/05/29 10:41:10;;;;;;;3.43;1.60;;;15.40;1.00;;;;;;5024902;28;20218;-93
2022/05/29 10:43:43;;;;;;;2.17;1.83;;;15.40;1.00;;;;;;5017437;28;20198;-93
2022/05/29 10:46:19;;;;;;;4.07;2.10;;;15.50;1.00;;;;;;5035731;28;20651;-91
2022/05/29 10:49:24;;;;;;;65.90;35.77;;;15.50;1.00;;;;;;5022015;28;20654;-92
2022/05/29 10:52:26;;;;;;;8.37;5.47;;;15.60;1.00;;;;;;5003455;28;20257;-94
2022/05/29 10:55:48;;;;;;;13.20;9.63;;;15.60;1.00;;;;;;4973142;28;20201;-92
2022/05/29 10:58:52;;;;;;;18.13;10.20;;;15.70;1.00;;;;;;5018700;28;20220;-93
2022/05/29 11:05:02;;;;;;;16.43;13.33;;;16.00;1.00;;;;;;5027037;28;20209;-93
2022/05/29 11:08:08;;;;;;;5.05;2.95;;;16.20;1.00;;;;;;5027893;28;20193;-93
2022/05/29 11:11:06;;;;;;;4.72;2.55;;;16.30;1.00;;;;;;5025418;28;20232;-92
2022/05/29 11:14:15;;;;;;;4.85;3.40;;;16.50;1.00;;;;;;5025197;28;20201;-89
2022/05/29 11:16:57;;;;;;;5.22;2.22;;;16.70;1.00;;;;;;5023013;28;20200;-94
2022/05/29 11:20:08;;;;;;;25.10;22.48;;;16.90;1.00;;;;;;5022085;28;20197;-93
2022/05/29 11:22:53;;;;;;;8.77;5.88;;;17.10;1.00;;;;;;5015702;28;20667;-94
2022/05/29 11:25:35;;;;;;;10.07;7.70;;;17.30;1.00;;;;;;5026590;28;20177;-88
2022/05/29 11:28:26;;;;;;;16.00;9.45;;;17.50;1.00;;;;;;5033550;28;20194;-94
2022/05/29 11:34:29;;;;;;;8.82;6.22;;;17.70;1.00;;;;;;5010172;28;20252;-93
2022/05/29 11:37:21;;;;;;;8.45;5.43;;;17.90;1.00;;;;;;5025168;28;20663;-94
2022/05/29 11:39:58;;;;;;;9.48;5.13;;;18.10;1.00;;;;;;5032674;28;20201;-89
2022/05/29 11:42:38;;;;;;;37.88;30.17;;;18.20;1.00;;;;;;5017577;28;20222;-91
2022/05/29 11:45:15;;;;;;;5.85;4.15;;;18.30;1.00;;;;;;5017083;28;20198;-90
2022/05/29 11:53:36;;;;;;;19.95;16.30;;;18.10;1.00;;;;;;5025456;28;20229;-88
2022/05/29 11:56:07;;;;;;;14.60;9.20;;;17.90;1.00;;;;;;5009821;28;20261;-88
2022/05/29 11:58:40;;;;;;;24.60;9.82;;;17.70;1.00;;;;;;5023125;28;20198;-91
2022/05/29 12:01:12;;;;;;;39.75;13.07;;;17.70;1.00;;;;;;5018337;28;20226;-88
2022/05/29 12:03:48;;;;;;;23.15;16.35;;;17.60;1.00;;;;;;5022885;28;20195;-89
2022/05/29 12:06:32;;;;;;;8.07;7.10;;;17.40;1.00;;;;;;5023067;28;20196;-90
2022/05/29 12:09:09;;;;;;;22.83;13.38;;;17.40;1.00;;;;;;5034120;28;20231;-91
2022/05/29 12:11:52;;;;;;;17.13;11.85;;;17.30;1.00;;;;;;5028472;28;20208;-91
2022/05/29 12:14:24;;;;;;;6.72;4.97;;;17.20;1.00;;;;;;5022358;28;20200;-88
2022/05/29 12:16:56;;;;;;;7.47;4.50;;;17.10;1.00;;;;;;5022832;28;20202;-88
2022/05/29 12:19:31;;;;;;;14.30;8.40;;;17.10;1.00;;;;;;5020305;28;20208;-88
2022/05/29 12:24:46;;;;;;;29.80;24.23;;;17.10;1.00;;;;;;5029890;28;20200;-92
2022/05/29 12:27:24;;;;;;;10.85;7.03;;;17.10;1.00;;;;;;5033933;28;20233;-93
2022/05/29 12:33:21;;;;;;;17.65;5.95;;;17.20;1.00;;;;;;5040139;28;20183;-91
2022/05/29 12:36:11;;;;;;;6.25;2.30;;;17.20;1.00;;;;;;5019573;28;20191;-92
2022/05/29 12:38:57;;;;;;;5.55;1.83;;;17.30;1.00;;;;;;5043880;28;20179;-91
2022/05/29 12:41:50;;;;;;;3.33;1.55;;;17.30;1.00;;;;;;5051707;28;20215;-95
2022/05/29 12:45:01;;;;;;;4.32;1.75;;;17.30;1.00;;;;;;5025865;28;20540;-89
2022/05/29 12:48:03;;;;;;;2.25;1.75;;;17.40;1.00;;;;;;5030259;28;20203;-95
2022/05/29 12:54:54;;;;;;;5.72;1.50;;;17.70;1.00;;;;;;5034453;28;20185;-89
2022/05/29 12:57:58;;;;;;;2.17;1.58;;;17.60;1.00;;;;;;5012946;28;20212;-92
2022/05/29 13:00:45;;;;;;;3.35;1.60;;;17.60;1.00;;;;;;5016055;28;20217;-87
2022/05/29 13:03:35;;;;;;;4.32;1.85;;;17.70;1.00;;;;;;5023357;28;20210;-88
2022/05/29 13:06:48;;;;;;;3.08;1.65;;;17.80;1.00;;;;;;5021389;28;20220;-87
2022/05/29 13:09:39;;;;;;;9.02;1.80;;;18.00;1.00;;;;;;5038959;28;20182;-88
2022/05/29 13:12:19;;;;;;;5.80;1.67;;;18.10;1.00;;;;;;5018178;28;20182;-90
2022/05/29 13:15:06;;;;;;;3.80;1.60;;;18.10;1.00;;;;;;5038638;28;20250;-95
2022/05/29 13:21:12;;;;;;;1.48;1.38;;;18.30;1.00;;;;;;4951712;28;20232;-87
2022/05/29 13:23:43;;;;;;;2.15;1.60;;;18.30;1.00;;;;;;4971620;28;20232;-88
2022/05/29 13:26:26;;;;;;;6.07;2.13;;;18.30;1.00;;;;;;5033037;28;20206;-87
2022/05/29 13:29:08;;;;;;;5.18;1.80;;;18.40;1.00;;;;;;5032126;28;20217;-90
2022/05/29 13:32:18;;;;;;;3.38;1.60;;;18.50;1.00;;;;;;5037539;28;20193;-91
2022/05/29 13:34:46;;;;;;;3.50;1.92;;;18.50;1.00;;;;;;5015413;28;20284;-91
2022/05/29 13:37:24;;;;;;;5.40;2.45;;;18.50;1.00;;;;;;5027023;28;20253;-88
2022/05/29 13:40:00;;;;;;;5.53;1.70;;;18.50;1.00;;;;;;5036290;28;20189;-87
2022/05/29 13:42:38;;;;;;;4.78;1.95;;;18.60;1.00;;;;;;5004247;28;20733;-88
2022/05/29 13:45:41;;;;;;;2.95;1.92;;;18.70;1.00;;;;;;5013808;28;20198;-88
2022/05/29 13:48:27;;;;;;;16.02;6.07;;;18.80;1.00;;;;;;5016776;28;20186;-90
2022/05/29 13:50:58;;;;;;;32.92;11.00;;;18.80;1.00;;;;;;5028678;28;20289;-85
2022/05/29 13:53:50;;;;;;;9.93;1.95;;;18.80;1.00;;;;;;5016394;28;20601;-89
2022/05/29 13:56:46;;;;;;;3.65;1.92;;;18.90;1.00;;;;;;5037627;28;20210;-89
2022/05/29 14:05:55;;;;;;;5.72;2.22;;;19.00;1.00;;;;;;5037481;28;20226;-88
2022/05/29 14:09:06;;;;;;;5.57;3.33;;;18.90;1.00;;;;;;5037531;28;20198;-88
2022/05/29 14:12:03;;;;;;;6.40;3.10;;;18.90;1.00;;;;;;5037445;28;20182;-87
2022/05/29 14:14:55;;;;;;;4.30;1.90;;;19.20;1.00;;;;;;5016024;28;20201;-87
2022/05/29 14:17:33;;;;;;;3.92;1.60;;;19.40;1.00;;;;;;5033613;28;20208;-89
2022/05/29 14:20:50;;;;;;;2.28;1.45;;;19.40;1.00;;;;;;5021822;28;20715;-86
2022/05/29 14:23:37;;;;;;;2.83;1.65;;;19.30;1.00;;;;;;5015857;28;20226;-85
2022/05/29 14:29:20;;;;;;;4.75;2.42;;;19.30;1.00;;;;;;5010430;28;20201;-87
2022/05/29 14:32:24;;;;;;;5.22;2.67;;;19.20;1.00;;;;;;5010329;28;20208;-89
2022/05/29 14:35:16;;;;;;;3.85;1.80;;;19.20;1.00;;;;;;5020300;28;20252;-87
2022/05/29 14:38:22;;;;;;;6.78;1.92;;;19.10;1.00;;;;;;5012819;28;20202;-89
2022/05/29 14:40:59;;;;;;;67.05;23.55;;;18.90;1.00;;;;;;5006687;28;20256;-89
2022/05/29 14:46:34;;;;;;;20.27;6.07;;;18.80;1.00;;;;;;5023013;28;20182;-90
2022/05/29 14:49:26;;;;;;;27.77;15.82;;;18.70;1.00;;;;;;5045779;28;20224;-91
2022/05/29 14:52:00;;;;;;;4.45;2.20;;;18.70;1.00;;;;;;5025725;28;20194;-87
2022/05/29 14:54:35;;;;;;;3.00;1.88;;;18.80;1.00;;;;;;5020644;28;20332;-89
2022/05/29 14:57:07;;;;;;;9.45;5.07;;;18.80;1.00;;;;;;5041188;28;20218;-88
2022/05/29 14:59:36;;;;;;;3.53;2.08;;;19.00;1.00;;;;;;5022941;28;20194;-87
2022/05/29 15:02:07;;;;;;;;;;;19.00;1.00;;;;;;5016858;28;20222;-86
2022/05/29 15:04:41;;;;;;;3.33;1.90;;;19.00;1.00;;;;;;5005939;28;19951;-88
2022/05/29 15:12:45;;;;;;;3.28;1.58;;;19.20;1.00;;;;;;5023183;28;20565;-90